KBZN/BZN METAR and TAF weather

Enter ICAO airport designator
Station Type Date Time Source
KBZN METAR 2020/06/02 18:56 UTC NOAA

KBZN 021856Z 00000KT 10SM CLR 19/07 A3019 RMK AO2 SLP200 T01940072


Station Type Date Time Source
KBZN Decoded METAR 2020/06/02 18:56 UTC NOAA

BOZEMAN GALLATIN FIELD, MT, United States (KBZN) 45-47N 111-09W 1361M
Jun 02, 2020 - 02:56 PM EDT / 2020.06.02 1856 UTC
Wind: Calm:0
Visibility: 10 mile(s):0
Sky conditions: clear
Temperature: 66.9 F (19.4 C)
Dew Point: 45.0 F (7.2 C)
Relative Humidity: 45%
Pressure (altimeter): 30.19 in. Hg (1022 hPa)
ob: KBZN 021856Z 00000KT 10SM CLR 19/07 A3019 RMK AO2 SLP200 T01940072
cycle: 19

Station Type Date Time Source
KBZN TAF 2020/06/02 18:22 UTC NOAA

TAF KBZN 021720Z 0218/0324 32008KT P6SM FEW080 FEW250
FM030000 25009KT P6SM VCSH FEW090
FM030300 12007KT P6SM FEW080 FEW250
FM031900 28017G26KT P6SM FEW070 SCT090 PROB30 0321/0323 4SM -SHRA BKN070 BKN080

Example: see airport list